sensor_id;sensor_type;location;lat;lon;timestamp;pressure;altitude;pressure_sealevel;temperature;humidity
36254;BME280;22291;52.250;21.228;2023-07-30T21:19:04;99655.02;;;19.27;83.20
36254;BME280;22291;52.250;21.228;2023-07-30T21:21:30;99649.26;;;19.12;83.65
36254;BME280;22291;52.250;21.228;2023-07-30T21:23:56;99659.03;;;19.06;83.95
36254;BME280;22291;52.250;21.228;2023-07-30T21:26:24;99658.39;;;18.99;84.28
36254;BME280;22291;52.250;21.228;2023-07-30T21:28:50;99663.05;;;18.95;84.62
36254;BME280;22291;52.250;21.228;2023-07-30T21:31:18;99663.22;;;18.89;84.71
36254;BME280;22291;52.250;21.228;2023-07-30T21:33:45;99664.13;;;18.83;84.90
36254;BME280;22291;52.250;21.228;2023-07-30T21:36:11;99670.74;;;18.78;84.57
36254;BME280;22291;52.250;21.228;2023-07-30T21:38:39;99657.95;;;18.73;84.96
36254;BME280;22291;52.250;21.228;2023-07-30T21:41:05;99661.05;;;18.67;85.26
36254;BME280;22291;52.250;21.228;2023-07-30T21:43:31;99655.92;;;18.62;85.44
36254;BME280;22291;52.250;21.228;2023-07-30T21:45:57;99659.23;;;18.58;85.54
36254;BME280;22291;52.250;21.228;2023-07-30T21:48:26;99657.61;;;18.54;85.29
36254;BME280;22291;52.250;21.228;2023-07-30T21:51:02;99659.92;;;18.48;85.49
36254;BME280;22291;52.250;21.228;2023-07-30T21:53:30;99664.00;;;18.44;85.67
36254;BME280;22291;52.250;21.228;2023-07-30T21:55:58;99663.97;;;18.41;86.00
36254;BME280;22291;52.250;21.228;2023-07-30T21:58:25;99660.23;;;18.39;86.59
36254;BME280;22291;52.250;21.228;2023-07-30T22:00:55;99657.09;;;18.37;86.82
36254;BME280;22291;52.250;21.228;2023-07-30T22:03:25;99654.52;;;18.35;86.89
36254;BME280;22291;52.250;21.228;2023-07-30T22:05:51;99652.75;;;18.33;86.79
36254;BME280;22291;52.250;21.228;2023-07-30T22:08:19;99646.84;;;18.27;86.73
36254;BME280;22291;52.250;21.228;2023-07-30T22:10:46;99645.25;;;18.26;87.19
36254;BME280;22291;52.250;21.228;2023-07-30T22:13:18;99638.00;;;18.24;87.28
36254;BME280;22291;52.250;21.228;2023-07-30T22:15:45;99643.07;;;18.22;86.97
36254;BME280;22291;52.250;21.228;2023-07-30T22:18:12;99649.76;;;18.28;87.30
36254;BME280;22291;52.250;21.228;2023-07-30T22:20:40;99634.02;;;18.18;87.50
36254;BME280;22291;52.250;21.228;2023-07-30T22:23:06;99629.52;;;18.16;87.78
36254;BME280;22291;52.250;21.228;2023-07-30T22:25:34;99633.21;;;18.14;88.19
36254;BME280;22291;52.250;21.228;2023-07-30T22:28:00;99635.33;;;18.10;87.63
36254;BME280;22291;52.250;21.228;2023-07-30T22:30:27;99633.92;;;18.07;87.39
36254;BME280;22291;52.250;21.228;2023-07-30T22:32:54;99628.42;;;18.03;87.67
36254;BME280;22291;52.250;21.228;2023-07-30T22:35:20;99630.91;;;17.99;87.33
36254;BME280;22291;52.250;21.228;2023-07-30T22:37:46;99626.77;;;17.95;87.96
36254;BME280;22291;52.250;21.228;2023-07-30T22:40:12;99622.63;;;17.91;87.65
36254;BME280;22291;52.250;21.228;2023-07-30T22:42:42;99624.74;;;17.88;87.53
36254;BME280;22291;52.250;21.228;2023-07-30T22:45:11;99624.45;;;17.84;87.61
36254;BME280;22291;52.250;21.228;2023-07-30T22:47:37;99632.26;;;17.82;88.16
36254;BME280;22291;52.250;21.228;2023-07-30T22:50:04;99635.55;;;17.78;88.02
36254;BME280;22291;52.250;21.228;2023-07-30T22:52:31;99634.33;;;17.75;88.39
36254;BME280;22291;52.250;21.228;2023-07-30T22:54:57;99634.88;;;17.71;88.57
36254;BME280;22291;52.250;21.228;2023-07-30T22:57:23;99627.61;;;17.69;88.99
36254;BME280;22291;52.250;21.228;2023-07-30T22:59:52;99628.56;;;17.67;88.92
36254;BME280;22291;52.250;21.228;2023-07-30T23:02:20;99626.20;;;17.65;89.37
36254;BME280;22291;52.250;21.228;2023-07-30T23:04:46;99628.89;;;17.62;88.82
36254;BME280;22291;52.250;21.228;2023-07-30T23:07:12;99625.97;;;17.61;89.07
36254;BME280;22291;52.250;21.228;2023-07-30T23:09:38;99641.16;;;17.58;89.13
36254;BME280;22291;52.250;21.228;2023-07-30T23:12:05;99641.90;;;17.55;89.31
36254;BME280;22291;52.250;21.228;2023-07-30T23:14:32;99643.63;;;17.53;89.56
36254;BME280;22291;52.250;21.228;2023-07-30T23:16:59;99641.86;;;17.51;89.70
36254;BME280;22291;52.250;21.228;2023-07-30T23:19:25;99642.45;;;17.51;89.64
36254;BME280;22291;52.250;21.228;2023-07-30T23:21:53;99635.77;;;17.48;90.16
36254;BME280;22291;52.250;21.228;2023-07-30T23:24:19;99634.61;;;17.49;90.25
36254;BME280;22291;52.250;21.228;2023-07-30T23:26:45;99636.20;;;17.50;90.50
36254;BME280;22291;52.250;21.228;2023-07-30T23:29:11;99634.02;;;17.50;90.07
36254;BME280;22291;52.250;21.228;2023-07-30T23:31:37;99638.34;;;17.51;90.03
36254;BME280;22291;52.250;21.228;2023-07-30T23:34:04;99638.13;;;17.50;90.13
36254;BME280;22291;52.250;21.228;2023-07-30T23:36:30;99638.72;;;17.49;90.03
36254;BME280;22291;52.250;21.228;2023-07-30T23:38:56;99639.86;;;17.48;89.79
36254;BME280;22291;52.250;21.228;2023-07-30T23:41:22;99638.49;;;17.48;89.83
36254;BME280;22291;52.250;21.228;2023-07-30T23:43:48;99632.62;;;17.46;90.31
36254;BME280;22291;52.250;21.228;2023-07-30T23:46:15;99631.06;;;17.45;90.20
36254;BME280;22291;52.250;21.228;2023-07-30T23:48:41;99631.98;;;17.43;90.30
36254;BME280;22291;52.250;21.228;2023-07-30T23:51:07;99631.80;;;17.42;89.93
36254;BME280;22291;52.250;21.228;2023-07-30T23:53:33;99640.19;;;17.43;89.73
36254;BME280;22291;52.250;21.228;2023-07-30T23:55:59;99628.43;;;17.39;89.79
36254;BME280;22291;52.250;21.228;2023-07-30T23:58:25;99626.84;;;17.38;89.85
